Time;durP1;ratioP1;P1;durP2;ratioP2;P2;SDS_P1;SDS_P2;PMS_P1;PMS_P2;Temp;Humidity;BMP_temperature;BMP_pressure;BME280_temperature;BME280_humidity;BME280_pressure;Samples;Min_cycle;Max_cycle;Signal;HPM_P1;HPM_P2
2021/07/01 00:01:11;;;;;;;13.45;7.38;;;16.00;99.90;;;;;;5039568;28;20077;-65
2021/07/01 00:03:37;;;;;;;11.75;7.80;;;16.00;99.90;;;;;;5038302;28;20052;-65
2021/07/01 00:06:07;;;;;;;9.20;6.57;;;15.90;99.90;;;;;;5019060;28;21466;-65
2021/07/01 00:08:33;;;;;;;9.75;6.50;;;15.90;99.90;;;;;;5034058;28;20071;-65
2021/07/01 00:10:58;;;;;;;9.13;5.57;;;15.90;99.90;;;;;;5036621;28;20033;-65
2021/07/01 00:13:26;;;;;;;10.93;6.45;;;15.90;99.90;;;;;;5035745;28;20045;-65
2021/07/01 00:15:54;;;;;;;9.00;6.13;;;16.00;99.90;;;;;;5036604;28;20029;-65
2021/07/01 00:18:23;;;;;;;9.40;6.40;;;15.90;99.90;;;;;;5051824;28;20511;-65
2021/07/01 00:20:50;;;;;;;10.25;5.60;;;16.00;99.90;;;;;;5053170;28;20166;-65
2021/07/01 00:23:16;;;;;;;8.90;5.28;;;15.90;99.90;;;;;;5037692;28;20029;-65
2021/07/01 00:25:47;;;;;;;8.68;6.03;;;16.00;99.90;;;;;;5034780;28;20041;-65
2021/07/01 00:28:12;;;;;;;9.90;6.47;;;15.90;99.90;;;;;;5038595;28;20064;-65
2021/07/01 00:30:38;;;;;;;15.70;7.13;;;15.90;99.90;;;;;;5041659;28;20480;-65
2021/07/01 00:33:03;;;;;;;9.80;6.13;;;15.90;99.90;;;;;;5038540;28;20028;-65
2021/07/01 00:35:29;;;;;;;10.43;6.47;;;15.90;99.90;;;;;;5040005;28;20028;-66
2021/07/01 00:37:59;;;;;;;11.25;6.97;;;15.90;99.90;;;;;;5038713;28;20473;-65
2021/07/01 00:40:30;;;;;;;12.20;5.45;;;15.90;99.90;;;;;;5038823;28;20030;-65
2021/07/01 00:42:55;;;;;;;8.57;5.10;;;15.90;99.90;;;;;;5041469;28;20029;-65
2021/07/01 00:45:21;;;;;;;8.48;5.25;;;15.90;99.90;;;;;;5042640;28;20052;-66
2021/07/01 00:47:46;;;;;;;7.00;4.43;;;15.80;99.90;;;;;;5040268;28;20182;-65
2021/07/01 00:50:17;;;;;;;9.85;5.28;;;15.80;99.90;;;;;;5044758;28;20090;-65
2021/07/01 00:52:43;;;;;;;8.45;5.30;;;15.80;99.90;;;;;;5064876;28;20120;-65
2021/07/01 00:55:12;;;;;;;9.50;5.10;;;15.80;99.90;;;;;;5043448;28;20112;-65
2021/07/01 00:57:38;;;;;;;7.65;4.95;;;15.80;99.90;;;;;;5043196;28;20574;-65
2021/07/01 01:00:09;;;;;;;11.13;5.50;;;15.80;99.90;;;;;;5042126;28;20032;-65
2021/07/01 01:02:35;;;;;;;9.98;5.05;;;15.80;99.90;;;;;;5040486;28;20032;-65
2021/07/01 01:05:01;;;;;;;8.98;5.15;;;15.90;99.90;;;;;;5042860;28;20442;-65
2021/07/01 01:07:29;;;;;;;10.57;5.70;;;15.90;99.90;;;;;;5043628;28;20596;-65
2021/07/01 01:09:54;;;;;;;28.15;6.90;;;15.80;99.90;;;;;;5042129;28;20520;-65
2021/07/01 01:12:20;;;;;;;7.28;5.05;;;15.80;99.90;;;;;;5038946;28;20044;-65
2021/07/01 01:14:45;;;;;;;7.03;4.68;;;15.80;99.90;;;;;;5043486;28;20029;-65
2021/07/01 01:17:12;;;;;;;8.82;5.40;;;15.80;99.90;;;;;;5043997;28;20029;-65
2021/07/01 01:19:37;;;;;;;9.80;6.20;;;15.80;99.90;;;;;;5041545;28;20053;-65
2021/07/01 01:22:05;;;;;;;11.52;5.32;;;15.80;99.90;;;;;;5038956;28;20029;-65
2021/07/01 01:24:37;;;;;;;13.77;6.47;;;15.80;99.90;;;;;;5042861;28;20041;-65
2021/07/01 01:27:02;;;;;;;8.73;5.47;;;15.70;99.90;;;;;;5043464;28;20099;-65
2021/07/01 01:29:28;;;;;;;9.10;6.00;;;15.80;99.90;;;;;;5035072;28;20029;-65
2021/07/01 01:31:54;;;;;;;9.00;6.00;;;15.80;99.90;;;;;;5039034;28;20043;-65
2021/07/01 01:34:24;;;;;;;9.45;6.07;;;15.80;99.90;;;;;;5039376;28;20067;-65
2021/07/01 01:36:50;;;;;;;10.80;5.88;;;15.80;99.90;;;;;;5038229;28;20172;-65
2021/07/01 01:39:19;;;;;;;8.93;5.43;;;15.70;99.90;;;;;;5035510;28;20545;-65
2021/07/01 01:41:50;;;;;;;9.25;5.55;;;15.80;99.90;;;;;;5044314;28;20017;-65
2021/07/01 01:44:15;;;;;;;7.88;5.43;;;15.80;99.90;;;;;;5040622;28;20037;-65
2021/07/01 01:46:41;;;;;;;8.82;6.47;;;15.70;99.90;;;;;;5037469;28;20056;-65
2021/07/01 01:49:07;;;;;;;9.90;6.35;;;15.60;99.90;;;;;;5044333;28;20099;-65
2021/07/01 01:51:36;;;;;;;9.55;6.20;;;15.60;99.90;;;;;;5038334;28;20354;-65
2021/07/01 01:54:07;;;;;;;9.50;5.25;;;15.60;99.90;;;;;;5036536;28;20124;-65
2021/07/01 01:56:37;;;;;;;12.90;5.90;;;15.70;99.90;;;;;;5035283;28;20052;-65
2021/07/01 01:59:07;;;;;;;9.82;4.95;;;15.60;99.90;;;;;;5037899;28;20144;-65
2021/07/01 02:01:33;;;;;;;8.13;4.72;;;15.70;99.90;;;;;;5024348;28;20021;-65
2021/07/01 02:03:59;;;;;;;9.85;5.93;;;15.70;99.90;;;;;;5037054;28;20045;-65
2021/07/01 02:06:24;;;;;;;10.40;5.75;;;15.60;99.90;;;;;;5034305;28;20043;-65
2021/07/01 02:08:52;;;;;;;17.63;6.65;;;15.60;99.90;;;;;;5038996;28;20025;-65
2021/07/01 02:11:18;;;;;;;10.55;6.13;;;15.60;99.90;;;;;;5038673;28;20033;-65
2021/07/01 02:13:44;;;;;;;12.48;6.10;;;15.60;99.90;;;;;;5035173;28;20499;-65
2021/07/01 02:16:14;;;;;;;7.38;5.15;;;15.50;99.90;;;;;;5036960;28;20037;-65
2021/07/01 02:18:46;;;;;;;10.10;3.75;;;15.40;99.90;;;;;;5037689;28;20139;-65
2021/07/01 02:21:14;;;;;;;9.55;3.72;;;15.40;99.90;;;;;;5039082;28;20021;-65
2021/07/01 02:23:42;;;;;;;6.53;3.40;;;15.30;99.90;;;;;;5028824;28;20021;-64
2021/07/01 02:26:10;;;;;;;9.13;3.05;;;15.30;99.90;;;;;;5040635;28;20033;-65
2021/07/01 02:28:41;;;;;;;6.07;3.20;;;15.40;99.90;;;;;;5041521;28;20172;-65
2021/07/01 02:31:06;;;;;;;6.68;3.78;;;15.40;99.90;;;;;;5039250;28;20028;-65
2021/07/01 02:33:32;;;;;;;10.77;4.70;;;15.30;99.90;;;;;;5023314;28;20051;-65
2021/07/01 02:35:58;;;;;;;8.05;3.72;;;15.30;99.90;;;;;;5037453;28;20083;-65
2021/07/01 02:38:25;;;;;;;8.32;3.97;;;15.30;99.90;;;;;;5037768;28;20039;-65
2021/07/01 02:40:51;;;;;;;8.18;3.92;;;15.30;99.90;;;;;;5038586;28;20063;-66
2021/07/01 02:43:17;;;;;;;8.68;4.07;;;15.30;99.90;;;;;;5038522;28;20037;-65
2021/07/01 02:45:42;;;;;;;80.40;8.60;;;15.20;99.90;;;;;;5037351;28;20028;-65
2021/07/01 02:48:08;;;;;;;6.70;3.85;;;15.20;99.90;;;;;;5036476;28;20033;-65
2021/07/01 02:50:36;;;;;;;7.28;4.65;;;15.20;99.90;;;;;;5018849;28;20037;-65
2021/07/01 02:53:01;;;;;;;7.68;4.40;;;15.20;99.90;;;;;;5037586;28;20125;-65
2021/07/01 02:55:29;;;;;;;9.35;4.75;;;15.20;99.90;;;;;;5037416;28;20143;-65
2021/07/01 02:57:56;;;;;;;9.63;4.85;;;15.20;99.90;;;;;;5042114;28;20029;-65
2021/07/01 03:00:24;;;;;;;7.60;3.88;;;15.20;99.90;;;;;;5038205;28;20115;-65
2021/07/01 03:02:52;;;;;;;6.43;3.90;;;15.20;99.90;;;;;;5036962;28;20025;-65
2021/07/01 03:05:17;;;;;;;7.00;3.67;;;15.20;99.90;;;;;;5037283;28;20025;-65
2021/07/01 03:07:45;;;;;;;6.38;3.88;;;15.20;99.90;;;;;;5036702;28;20037;-65
2021/07/01 03:10:11;;;;;;;23.13;5.78;;;15.20;99.90;;;;;;5038324;28;20075;-65
2021/07/01 03:12:37;;;;;;;13.15;8.95;;;15.20;99.90;;;;;;5040178;28;20116;-65
2021/07/01 03:15:03;;;;;;;13.55;10.65;;;15.10;99.90;;;;;;5036299;28;20032;-65
2021/07/01 03:17:29;;;;;;;14.25;11.73;;;15.00;99.90;;;;;;5032835;28;20028;-65
2021/07/01 03:19:57;;;;;;;19.85;12.40;;;14.80;99.90;;;;;;5034948;28;21915;-67
2021/07/01 03:22:22;;;;;;;16.70;12.23;;;14.80;99.90;;;;;;5043308;28;20106;-69
2021/07/01 03:24:51;;;;;;;17.00;12.20;;;14.70;99.90;;;;;;5037479;28;20092;-69
2021/07/01 03:27:16;;;;;;;18.10;12.90;;;14.70;99.90;;;;;;5037760;28;20037;-68
2021/07/01 03:29:44;;;;;;;18.63;12.55;;;14.70;99.90;;;;;;5036830;28;20378;-68
2021/07/01 03:32:12;;;;;;;16.13;11.25;;;14.70;99.90;;;;;;5033530;28;20029;-68
2021/07/01 03:34:37;;;;;;;17.15;11.30;;;14.70;99.90;;;;;;5035835;28;20037;-68
2021/07/01 03:37:03;;;;;;;14.82;9.80;;;14.80;99.90;;;;;;5037089;28;20390;-68
2021/07/01 03:39:34;;;;;;;15.40;9.93;;;14.80;99.90;;;;;;5042944;28;20037;-68
2021/07/01 03:42:02;;;;;;;14.95;8.95;;;14.80;99.90;;;;;;5035266;28;20467;-69
2021/07/01 03:44:27;;;;;;;16.23;9.30;;;14.80;99.90;;;;;;5043426;28;20548;-68
2021/07/01 03:46:53;;;;;;;15.75;10.18;;;14.80;99.90;;;;;;5041228;28;20049;-68
2021/07/01 03:49:19;;;;;;;19.92;10.40;;;14.90;99.90;;;;;;5038103;28;20109;-68
2021/07/01 03:51:45;;;;;;;24.52;12.23;;;14.80;99.90;;;;;;5038184;28;20117;-68
2021/07/01 03:54:10;;;;;;;19.85;11.98;;;14.90;99.90;;;;;;5035957;28;20116;-68
2021/07/01 03:56:44;;;;;;;17.10;11.07;;;14.80;99.90;;;;;;5039364;28;20025;-68
2021/07/01 03:59:13;;;;;;;17.00;10.63;;;14.80;99.90;;;;;;5034656;28;20565;-68
2021/07/01 04:01:42;;;;;;;21.73;10.10;;;14.80;99.90;;;;;;5039000;28;20720;-68
2021/07/01 04:04:10;;;;;;;16.13;9.50;;;14.80;99.90;;;;;;5037778;28;20056;-69
2021/07/01 04:06:38;;;;;;;14.80;9.20;;;14.80;99.90;;;;;;5039215;28;20016;-69
2021/07/01 04:09:04;;;;;;;15.02;10.27;;;14.80;99.90;;;;;;5027909;28;20053;-68
2021/07/01 04:11:34;;;;;;;15.93;9.35;;;14.80;99.90;;;;;;5037365;28;20036;-68
2021/07/01 04:14:02;;;;;;;15.38;9.10;;;14.80;99.90;;;;;;5037406;28;20037;-68
2021/07/01 04:16:30;;;;;;;14.02;9.05;;;14.80;99.90;;;;;;5042725;28;20025;-68
2021/07/01 04:18:58;;;;;;;13.07;9.52;;;14.80;99.90;;;;;;5037639;28;20025;-68
2021/07/01 04:21:27;;;;;;;15.68;9.90;;;14.80;99.90;;;;;;5038499;28;20068;-68
2021/07/01 04:23:56;;;;;;;13.73;8.68;;;14.80;99.90;;;;;;5038169;28;20116;-68
2021/07/01 04:26:26;;;;;;;18.88;8.82;;;14.80;99.90;;;;;;5040965;28;20026;-69
2021/07/01 04:28:52;;;;;;;12.52;7.68;;;14.80;99.90;;;;;;5021804;28;20154;-68
2021/07/01 04:31:21;;;;;;;11.73;8.18;;;14.80;99.90;;;;;;5037957;28;20042;-68
2021/07/01 04:33:48;;;;;;;12.82;7.88;;;14.70;99.90;;;;;;5037521;28;20029;-68
2021/07/01 04:36:17;;;;;;;11.40;6.68;;;14.80;99.90;;;;;;5039550;28;20393;-68
2021/07/01 04:38:45;;;;;;;9.60;6.38;;;14.70;99.90;;;;;;5036375;28;20101;-68
2021/07/01 04:41:19;;;;;;;10.10;7.05;;;14.70;99.90;;;;;;5037770;28;20032;-68
2021/07/01 04:43:47;;;;;;;11.98;8.10;;;14.70;99.90;;;;;;5037270;28;20029;-68
2021/07/01 04:46:13;;;;;;;6.63;4.45;;;14.70;99.90;;;;;;5036304;28;20041;-68
2021/07/01 04:48:40;;;;;;;9.63;5.20;;;14.60;99.90;;;;;;5038645;28;20473;-68
2021/07/01 04:51:08;;;;;;;7.32;5.03;;;14.50;99.90;;;;;;5040977;28;20059;-67
2021/07/01 04:53:33;;;;;;;9.60;6.35;;;14.50;99.90;;;;;;5035963;28;20032;-68
2021/07/01 04:55:59;;;;;;;9.27;5.95;;;14.50;99.90;;;;;;5041334;28;20120;-68
2021/07/01 04:58:25;;;;;;;11.07;6.82;;;14.50;99.90;;;;;;5040564;28;20071;-69
2021/07/01 05:00:52;;;;;;;12.00;6.75;;;14.60;99.90;;;;;;5021911;28;20116;-68
2021/07/01 05:03:20;;;;;;;9.45;6.55;;;14.60;99.90;;;;;;5039412;28;20094;-68
2021/07/01 05:05:48;;;;;;;10.05;6.15;;;14.70;99.90;;;;;;5038227;28;20017;-68
2021/07/01 05:08:15;;;;;;;10.40;6.10;;;14.60;99.90;;;;;;5035756;28;20094;-68
2021/07/01 05:10:41;;;;;;;8.55;6.05;;;14.60;99.90;;;;;;5041088;28;20036;-68
2021/07/01 05:13:07;;;;;;;8.90;5.75;;;14.60;99.90;;;;;;5036760;28;20382;-68
2021/07/01 05:15:37;;;;;;;8.45;6.03;;;14.60;99.90;;;;;;5039434;28;20029;-69
2021/07/01 05:18:03;;;;;;;11.57;6.03;;;14.60;99.90;;;;;;5038736;28;20061;-68
2021/07/01 05:20:31;;;;;;;10.13;5.80;;;14.70;99.90;;;;;;5036562;28;20096;-68
2021/07/01 05:23:02;;;;;;;9.18;5.55;;;14.70;99.90;;;;;;5027823;28;20538;-68
2021/07/01 05:25:27;;;;;;;7.90;4.68;;;14.70;99.90;;;;;;5037968;28;20041;-68
2021/07/01 05:27:55;;;;;;;6.22;4.05;;;14.60;99.90;;;;;;5038972;28;20033;-68
2021/07/01 05:30:21;;;;;;;7.50;4.38;;;14.60;99.90;;;;;;5046767;28;20039;-68
2021/07/01 05:32:49;;;;;;;7.05;4.05;;;14.70;99.90;;;;;;5040290;28;21868;-66
2021/07/01 05:35:20;;;;;;;6.32;4.05;;;14.70;99.90;;;;;;5040818;28;20136;-66
2021/07/01 05:37:48;;;;;;;11.30;4.43;;;14.80;99.90;;;;;;5040076;28;20030;-69
2021/07/01 05:40:15;;;;;;;7.22;4.30;;;14.80;99.90;;;;;;5040361;28;20478;-66
2021/07/01 05:42:46;;;;;;;6.13;4.07;;;14.70;99.90;;;;;;5038182;28;20041;-66
2021/07/01 05:45:14;;;;;;;9.63;4.85;;;14.70;99.90;;;;;;5025571;28;20187;-66
2021/07/01 05:47:45;;;;;;;5.82;3.78;;;14.70;99.90;;;;;;5039046;28;20044;-66
2021/07/01 05:50:11;;;;;;;7.82;3.72;;;14.70;99.90;;;;;;5042316;28;20029;-66
2021/07/01 05:52:44;;;;;;;5.90;3.30;;;14.70;99.90;;;;;;5039737;28;20040;-67
2021/07/01 05:55:11;;;;;;;7.90;3.30;;;14.60;99.90;;;;;;5038900;28;20055;-68
2021/07/01 05:57:36;;;;;;;6.18;3.05;;;14.60;99.90;;;;;;5029615;28;20099;-66
2021/07/01 06:00:07;;;;;;;7.95;3.58;;;14.70;99.90;;;;;;5038841;28;20033;-67
2021/07/01 06:02:33;;;;;;;5.35;3.03;;;14.70;99.90;;;;;;5045728;28;20037;-67
2021/07/01 06:04:58;;;;;;;5.60;2.83;;;14.70;99.90;;;;;;5040516;28;20075;-66
2021/07/01 06:07:29;;;;;;;5.28;3.00;;;14.60;99.90;;;;;;5037936;28;20494;-68
2021/07/01 06:10:02;;;;;;;6.97;3.13;;;14.50;99.90;;;;;;5021610;28;20485;-69
2021/07/01 06:12:31;;;;;;;5.03;3.03;;;14.50;99.90;;;;;;5041908;28;20041;-66
2021/07/01 06:14:57;;;;;;;5.57;2.92;;;14.60;99.90;;;;;;5040193;28;20072;-66
2021/07/01 06:17:28;;;;;;;6.07;3.17;;;14.60;99.90;;;;;;5040659;28;20029;-66
2021/07/01 06:19:53;;;;;;;5.65;2.30;;;14.70;99.90;;;;;;5038904;28;20025;-67
2021/07/01 06:22:21;;;;;;;4.82;2.50;;;14.60;99.90;;;;;;5042871;28;20086;-67
2021/07/01 06:24:54;;;;;;;4.97;2.80;;;14.60;99.90;;;;;;5039398;28;20136;-66
2021/07/01 06:27:41;;;;;;;3.78;2.17;;;14.60;99.90;;;;;;5039979;28;20013;-69
2021/07/01 06:30:19;;;;;;;5.32;2.70;;;14.60;99.90;;;;;;5039856;28;20045;-69
2021/07/01 06:32:53;;;;;;;6.18;2.85;;;14.60;99.90;;;;;;5040370;28;20047;-70
2021/07/01 06:35:23;;;;;;;4.50;2.60;;;14.70;99.90;;;;;;5040596;28;20033;-71
2021/07/01 06:37:53;;;;;;;5.38;2.70;;;14.80;99.90;;;;;;5040054;28;20033;-66
2021/07/01 06:40:22;;;;;;;6.78;3.05;;;14.70;99.90;;;;;;5038395;28;20445;-66
2021/07/01 06:42:57;;;;;;;4.75;2.30;;;14.70;99.90;;;;;;5018925;28;20021;-66
2021/07/01 06:45:23;;;;;;;3.90;2.30;;;14.70;99.90;;;;;;5024474;28;20029;-66
2021/07/01 06:47:57;;;;;;;6.18;2.78;;;14.60;99.90;;;;;;5038086;28;20036;-66
2021/07/01 06:50:28;;;;;;;6.10;2.80;;;14.70;99.90;;;;;;5037998;28;20029;-66
2021/07/01 06:52:55;;;;;;;5.18;3.08;;;14.80;99.90;;;;;;5039937;28;20322;-66
2021/07/01 06:55:21;;;;;;;11.25;8.20;;;14.80;99.90;;;;;;5042361;28;20068;-69
2021/07/01 06:57:47;;;;;;;7.55;5.05;;;14.80;99.90;;;;;;5039900;28;20036;-67
2021/07/01 07:00:14;;;;;;;7.15;3.03;;;14.90;99.90;;;;;;5035558;28;20062;-67
2021/07/01 07:02:43;;;;;;;4.45;2.88;;;14.90;99.90;;;;;;5037733;28;20560;-66
2021/07/01 07:05:10;;;;;;;4.47;2.70;;;14.90;99.90;;;;;;5022522;28;20040;-66
2021/07/01 07:07:35;;;;;;;5.47;2.80;;;14.90;99.90;;;;;;5009331;28;20072;-67
2021/07/01 07:10:07;;;;;;;4.60;2.90;;;14.90;99.90;;;;;;5036940;28;20079;-67
2021/07/01 07:12:40;;;;;;;7.00;2.75;;;15.00;99.90;;;;;;5039896;28;20037;-67
2021/07/01 07:15:08;;;;;;;5.65;3.35;;;15.00;99.90;;;;;;5042021;28;20045;-66
2021/07/01 07:17:39;;;;;;;5.05;3.20;;;14.90;99.90;;;;;;5038847;28;20037;-66
2021/07/01 07:20:05;;;;;;;5.38;3.47;;;15.00;99.90;;;;;;5039224;28;20083;-67
2021/07/01 07:22:34;;;;;;;5.80;3.70;;;15.00;99.90;;;;;;5038261;28;20040;-67
2021/07/01 07:25:06;;;;;;;5.13;3.63;;;15.10;99.90;;;;;;5039824;28;20462;-66
2021/07/01 07:27:32;;;;;;;4.97;3.45;;;15.10;99.90;;;;;;5023099;28;20025;-66
2021/07/01 07:29:58;;;;;;;4.93;3.20;;;15.10;99.90;;;;;;5023642;28;20029;-66
2021/07/01 07:32:28;;;;;;;12.73;3.97;;;15.10;99.90;;;;;;5038854;28;20040;-67
2021/07/01 07:34:56;;;;;;;5.40;3.22;;;15.10;99.90;;;;;;5038848;28;20223;-66
2021/07/01 07:37:26;;;;;;;6.57;3.75;;;15.00;99.90;;;;;;5039749;28;20417;-67
2021/07/01 07:39:52;;;;;;;6.28;3.97;;;15.10;99.90;;;;;;5022607;28;20039;-67
2021/07/01 07:42:22;;;;;;;5.22;3.55;;;15.10;99.90;;;;;;5039141;28;20397;-69
2021/07/01 07:44:47;;;;;;;10.07;7.28;;;15.20;99.90;;;;;;5039590;28;20113;-67
2021/07/01 07:47:16;;;;;;;8.13;5.65;;;15.30;99.90;;;;;;5038126;28;20592;-66
2021/07/01 07:49:47;;;;;;;7.13;4.35;;;15.30;99.90;;;;;;5037458;28;20041;-67
2021/07/01 07:52:13;;;;;;;7.95;4.70;;;15.30;99.90;;;;;;5039274;28;20044;-67
2021/07/01 07:54:43;;;;;;;7.35;4.28;;;15.30;99.90;;;;;;5037758;28;20025;-67
2021/07/01 07:57:13;;;;;;;6.57;4.32;;;15.30;99.90;;;;;;5026161;28;20627;-67
2021/07/01 07:59:43;;;;;;;6.38;4.68;;;15.30;99.90;;;;;;5039214;28;20032;-67
2021/07/01 08:02:15;;;;;;;7.28;5.00;;;15.20;99.90;;;;;;5039393;28;20013;-67
2021/07/01 08:04:43;;;;;;;7.32;4.80;;;15.20;99.90;;;;;;5041204;28;20025;-71
2021/07/01 08:07:11;;;;;;;8.95;5.50;;;15.20;99.90;;;;;;5026339;28;20037;-70
2021/07/01 08:09:36;;;;;;;8.00;5.95;;;15.30;99.90;;;;;;5024763;28;20559;-70
2021/07/01 08:12:02;;;;;;;10.23;6.00;;;15.30;99.90;;;;;;5040484;28;20128;-70
2021/07/01 08:14:28;;;;;;;9.07;6.40;;;15.30;99.90;;;;;;5040472;28;20053;-70
2021/07/01 08:16:53;;;;;;;9.93;5.72;;;15.30;99.90;;;;;;5042815;28;20109;-70
2021/07/01 08:19:19;;;;;;;8.75;6.32;;;15.30;99.90;;;;;;5044644;28;20123;-70
2021/07/01 08:21:46;;;;;;;8.70;6.32;;;15.40;99.90;;;;;;5041182;28;20060;-70
2021/07/01 08:24:14;;;;;;;10.15;6.50;;;15.30;99.90;;;;;;5042902;28;20536;-70
2021/07/01 08:26:45;;;;;;;9.38;6.32;;;15.40;99.90;;;;;;5044303;28;20036;-70
2021/07/01 08:29:11;;;;;;;7.15;4.78;;;15.50;99.90;;;;;;5029144;28;20028;-70
2021/07/01 08:31:36;;;;;;;9.02;4.93;;;15.50;99.90;;;;;;5035407;28;20039;-70
2021/07/01 08:34:04;;;;;;;5.97;3.40;;;15.50;99.90;;;;;;5021906;28;20035;-70
2021/07/01 08:36:30;;;;;;;5.53;3.58;;;15.60;99.90;;;;;;5041874;28;20036;-70
2021/07/01 08:38:56;;;;;;;6.40;3.75;;;15.70;99.90;;;;;;5036691;28;20410;-71
2021/07/01 08:41:26;;;;;;;6.65;3.80;;;15.70;99.90;;;;;;5024462;28;20055;-70
2021/07/01 08:44:00;;;;;;;9.82;7.10;;;15.70;99.90;;;;;;5039852;28;20021;-67
2021/07/01 08:46:41;;;;;;;7.18;4.80;;;15.50;99.90;;;;;;5040660;28;20075;-68
2021/07/01 08:49:09;;;;;;;5.20;3.28;;;15.50;99.90;;;;;;5043487;28;20094;-69
2021/07/01 08:51:39;;;;;;;5.70;3.38;;;15.40;99.90;;;;;;5040240;28;20037;-69
2021/07/01 08:54:36;;;;;;;6.03;3.20;;;15.40;99.90;;;;;;5040037;28;20037;-70
2021/07/01 08:57:10;;;;;;;7.18;3.88;;;15.40;99.90;;;;;;5041629;28;20835;-70
2021/07/01 08:59:42;;;;;;;4.97;3.00;;;15.50;99.90;;;;;;5041982;28;20753;-70
2021/07/01 09:02:09;;;;;;;4.63;2.60;;;15.70;99.90;;;;;;5042237;28;20223;-70
2021/07/01 09:04:50;;;;;;;5.18;2.30;;;15.70;99.90;;;;;;5040514;28;20455;-69
2021/07/01 09:07:20;;;;;;;3.92;2.15;;;15.80;99.90;;;;;;5042208;28;20036;-69
2021/07/01 09:09:48;;;;;;;3.30;1.95;;;15.70;99.90;;;;;;5041562;28;20443;-70
2021/07/01 09:12:14;;;;;;;4.65;2.20;;;15.70;99.90;;;;;;5025724;28;20037;-70
2021/07/01 09:14:39;;;;;;;5.00;2.13;;;15.80;99.90;;;;;;5041981;28;20049;-69
2021/07/01 09:17:09;;;;;;;4.20;1.95;;;15.80;99.90;;;;;;5032719;28;20627;-70
2021/07/01 09:19:36;;;;;;;2.58;1.50;;;15.70;99.90;;;;;;5042252;28;20051;-70
2021/07/01 09:22:04;;;;;;;3.22;1.65;;;15.70;99.90;;;;;;5041118;28;20138;-69
2021/07/01 09:24:34;;;;;;;3.90;1.70;;;15.80;99.90;;;;;;5031753;28;20065;-70
2021/07/01 09:27:00;;;;;;;3.70;1.70;;;15.80;99.90;;;;;;5043398;28;20029;-70
2021/07/01 09:29:28;;;;;;;2.22;1.63;;;15.90;99.90;;;;;;5041404;28;20017;-70
2021/07/01 09:31:56;;;;;;;3.17;1.55;;;15.80;99.90;;;;;;5044968;28;20017;-69
2021/07/01 09:34:23;;;;;;;3.45;1.60;;;15.70;99.90;;;;;;5043850;28;20250;-70
2021/07/01 09:36:49;;;;;;;1.88;1.40;;;15.90;99.90;;;;;;5040431;28;20029;-70
2021/07/01 09:39:21;;;;;;;2.90;1.23;;;15.70;99.90;;;;;;5064278;28;20036;-70
2021/07/01 09:41:47;;;;;;;2.33;1.10;;;15.70;99.90;;;;;;5041153;28;20044;-70
2021/07/01 09:44:15;;;;;;;2.40;1.30;;;15.70;99.90;;;;;;5041367;28;20021;-70
2021/07/01 09:46:41;;;;;;;2.25;1.40;;;15.70;99.90;;;;;;5013570;28;20574;-70
2021/07/01 09:49:09;;;;;;;3.53;1.48;;;15.70;99.90;;;;;;5025582;28;20056;-70
2021/07/01 09:51:37;;;;;;;1.80;1.30;;;15.70;99.90;;;;;;5026790;28;20033;-70
2021/07/01 09:54:06;;;;;;;2.58;1.38;;;15.80;99.90;;;;;;5041491;28;20481;-70
2021/07/01 09:56:38;;;;;;;3.45;1.70;;;15.90;99.90;;;;;;5025697;28;20044;-68
2021/07/01 09:59:14;;;;;;;2.45;1.58;;;16.00;99.90;;;;;;5027140;28;20029;-71
2021/07/01 10:01:41;;;;;;;2.60;1.50;;;15.80;99.90;;;;;;5041835;28;20057;-70
2021/07/01 10:04:08;;;;;;;2.90;1.60;;;15.90;99.90;;;;;;5039890;28;20056;-70
2021/07/01 10:06:36;;;;;;;5.07;2.33;;;15.90;99.90;;;;;;5046343;28;20374;-69
2021/07/01 10:09:06;;;;;;;4.55;2.88;;;15.70;99.90;;;;;;5031065;28;20056;-69
2021/07/01 10:11:43;;;;;;;5.82;3.78;;;15.50;99.90;;;;;;5042250;28;20116;-69
2021/07/01 10:14:14;;;;;;;7.35;3.88;;;15.20;99.90;;;;;;5041179;28;20025;-69
2021/07/01 10:16:40;;;;;;;6.68;4.30;;;15.10;99.90;;;;;;5031441;28;20026;-69
2021/07/01 10:19:08;;;;;;;8.07;5.03;;;15.10;99.90;;;;;;5046471;28;20052;-69
2021/07/01 10:21:41;;;;;;;8.93;5.10;;;15.10;99.90;;;;;;5044247;28;20116;-69
2021/07/01 10:24:14;;;;;;;8.48;5.75;;;15.20;99.90;;;;;;5041825;28;20073;-69
2021/07/01 10:26:43;;;;;;;8.48;5.88;;;15.10;99.90;;;;;;5040474;28;20238;-69
2021/07/01 10:29:08;;;;;;;9.40;6.85;;;14.90;99.90;;;;;;5024128;28;20039;-69
2021/07/01 10:31:55;;;;;;;11.20;6.80;;;15.00;99.90;;;;;;5021143;28;20109;-69
2021/07/01 10:34:22;;;;;;;9.98;6.03;;;15.00;99.90;;;;;;5042935;28;20031;-68
2021/07/01 10:36:48;;;;;;;9.02;6.10;;;14.90;99.90;;;;;;5043201;28;20032;-69
2021/07/01 10:39:26;;;;;;;11.55;6.70;;;14.80;99.90;;;;;;5026212;28;20033;-69
2021/07/01 10:42:01;;;;;;;10.45;6.65;;;14.80;99.90;;;;;;5046155;28;20044;-69
2021/07/01 10:44:29;;;;;;;8.63;6.40;;;14.80;99.90;;;;;;5041261;28;20025;-69
2021/07/01 10:46:56;;;;;;;11.00;7.10;;;14.90;99.90;;;;;;5041282;28;20049;-69
2021/07/01 10:49:33;;;;;;;9.65;6.47;;;14.90;99.90;;;;;;5043796;28;20034;-69
2021/07/01 10:52:02;;;;;;;10.30;7.30;;;15.00;99.90;;;;;;5042996;28;20107;-69
2021/07/01 10:54:27;;;;;;;12.05;7.40;;;15.20;99.90;;;;;;5023054;28;20017;-69
2021/07/01 10:57:07;;;;;;;10.05;6.68;;;15.20;99.90;;;;;;5040757;28;20021;-69
2021/07/01 10:59:52;;;;;;;9.40;6.95;;;15.20;99.90;;;;;;5042361;28;20017;-69
2021/07/01 11:02:23;;;;;;;10.68;7.07;;;15.20;99.90;;;;;;5044847;28;20032;-68
2021/07/01 11:04:49;;;;;;;10.48;7.70;;;15.30;99.90;;;;;;5043322;28;20549;-68
2021/07/01 11:07:15;;;;;;;10.50;7.38;;;15.30;99.90;;;;;;5039449;28;20439;-69
2021/07/01 11:09:44;;;;;;;10.70;7.97;;;15.30;99.90;;;;;;5038197;28;20087;-68
2021/07/01 11:12:10;;;;;;;10.30;7.20;;;15.30;99.90;;;;;;5044904;28;20026;-68
2021/07/01 11:14:40;;;;;;;10.70;7.13;;;15.30;99.90;;;;;;5024199;28;20456;-69
2021/07/01 11:17:05;;;;;;;11.70;8.30;;;15.20;99.90;;;;;;5042694;28;20040;-69
2021/07/01 11:19:45;;;;;;;9.82;7.18;;;15.20;99.90;;;;;;5040144;28;20343;-69
2021/07/01 11:22:16;;;;;;;16.52;11.00;;;15.10;99.90;;;;;;5042128;28;20023;-67
2021/07/01 11:24:45;;;;;;;14.55;10.13;;;14.90;99.90;;;;;;5042710;28;20068;-66
2021/07/01 11:27:11;;;;;;;11.85;7.82;;;15.00;99.90;;;;;;5038587;28;20481;-67
2021/07/01 11:29:44;;;;;;;10.35;7.40;;;15.00;99.90;;;;;;5040108;28;20041;-69
2021/07/01 11:32:16;;;;;;;11.93;8.10;;;14.90;99.90;;;;;;5040441;28;20033;-69
2021/07/01 11:34:42;;;;;;;11.48;7.95;;;14.90;99.90;;;;;;5041242;28;20025;-69
2021/07/01 11:37:11;;;;;;;11.48;7.30;;;14.90;99.90;;;;;;5038814;28;20036;-69
2021/07/01 11:39:37;;;;;;;11.13;7.53;;;14.90;99.90;;;;;;5025265;28;20056;-69
2021/07/01 11:42:05;;;;;;;10.38;6.97;;;15.00;99.90;;;;;;5038750;28;20021;-69
2021/07/01 11:44:31;;;;;;;9.73;7.25;;;14.90;99.90;;;;;;5029078;28;20039;-69
2021/07/01 11:46:57;;;;;;;15.00;9.38;;;15.00;99.90;;;;;;5040578;28;20446;-69
2021/07/01 11:49:26;;;;;;;10.40;8.07;;;15.00;99.90;;;;;;5041438;28;20032;-69
2021/07/01 11:51:52;;;;;;;10.20;6.82;;;15.00;99.90;;;;;;5030391;28;20032;-69
2021/07/01 11:54:20;;;;;;;11.60;7.90;;;15.10;99.90;;;;;;5039630;28;20028;-69
2021/07/01 11:56:59;;;;;;;10.10;6.82;;;15.10;99.90;;;;;;5044511;28;20362;-69
2021/07/01 11:59:32;;;;;;;11.88;7.60;;;15.10;99.90;;;;;;5043592;28;20603;-69
2021/07/01 12:01:59;;;;;;;10.38;7.00;;;15.20;99.90;;;;;;5038112;28;20269;-69
2021/07/01 12:04:35;;;;;;;9.85;6.93;;;15.20;99.90;;;;;;5037869;28;20029;-69
2021/07/01 12:07:04;;;;;;;10.93;7.32;;;15.20;99.90;;;;;;5020740;28;20043;-69
2021/07/01 12:09:31;;;;;;;9.45;6.72;;;15.40;99.90;;;;;;5039458;28;20025;-69
2021/07/01 12:12:03;;;;;;;8.30;5.93;;;15.40;99.90;;;;;;5026936;28;20024;-69
2021/07/01 12:14:35;;;;;;;;;;;15.50;99.90;;;;;;5040344;28;20021;-69
2021/07/01 12:17:01;;;;;;;11.10;6.75;;;15.60;99.90;;;;;;5040809;28;19908;-69
2021/07/01 12:19:48;;;;;;;9.55;6.88;;;15.60;99.90;;;;;;5025365;28;20509;-69
2021/07/01 12:22:46;;;;;;;10.82;7.28;;;15.70;99.90;;;;;;5042636;28;20028;-69
2021/07/01 12:25:19;;;;;;;10.52;7.10;;;15.90;99.90;;;;;;5040958;28;20183;-69
2021/07/01 12:27:45;;;;;;;8.48;6.25;;;15.90;99.90;;;;;;5043427;28;20354;-69
2021/07/01 12:30:11;;;;;;;9.15;6.63;;;16.00;99.90;;;;;;5038462;28;20040;-68
2021/07/01 12:32:39;;;;;;;9.40;6.35;;;15.90;99.90;;;;;;5060112;28;20033;-69
2021/07/01 12:35:40;;;;;;;9.48;6.20;;;15.90;99.90;;;;;;5042328;28;20587;-69
2021/07/01 12:38:11;;;;;;;10.40;6.90;;;16.00;99.90;;;;;;5039883;28;20060;-69
2021/07/01 12:40:58;;;;;;;9.65;6.53;;;16.00;99.90;;;;;;5041629;28;20466;-69
2021/07/01 12:43:47;;;;;;;8.48;6.40;;;16.00;99.90;;;;;;5045088;28;20034;-68
2021/07/01 12:46:36;;;;;;;11.90;7.28;;;16.00;99.90;;;;;;5044859;28;20868;-69
2021/07/01 12:49:02;;;;;;;8.43;6.00;;;16.00;99.90;;;;;;5039570;28;20532;-69
2021/07/01 12:51:44;;;;;;;10.27;6.22;;;15.80;99.90;;;;;;5048632;28;20029;-69